createdAt,value
2019-03-16T00:00:14.261Z,72.89
2019-03-16T00:02:41.899Z,72.91
2019-03-16T00:05:11.302Z,72.98
2019-03-16T00:07:39.750Z,72.70
2019-03-16T00:10:09.213Z,72.39
2019-03-16T00:12:37.604Z,71.46
2019-03-16T00:15:10.208Z,71.36
2019-03-16T00:17:38.576Z,71.53
2019-03-16T00:20:10.520Z,71.50
2019-03-16T00:22:38.981Z,71.80
2019-03-16T00:25:09.564Z,71.35
2019-03-16T00:27:38.162Z,70.82
2019-03-16T00:30:09.563Z,70.69
2019-03-16T00:32:37.967Z,70.30
2019-03-16T00:35:06.826Z,70.36
2019-03-16T00:37:35.251Z,70.22
2019-03-16T00:40:04.828Z,70.27
2019-03-16T00:42:33.198Z,70.53
2019-03-16T00:45:01.603Z,70.79
2019-03-16T00:47:32.852Z,71.07
2019-03-16T00:50:05.973Z,70.83
2019-03-16T00:52:35.711Z,70.86
2019-03-16T00:55:05.946Z,71.09
2019-03-16T00:57:35.401Z,71.70
2019-03-16T01:00:10.165Z,71.93
2019-03-16T01:02:38.636Z,72.23
2019-03-16T01:05:10.546Z,72.73
2019-03-16T01:07:38.963Z,73.10
2019-03-16T01:10:11.633Z,73.22
2019-03-16T01:12:40.072Z,73.26
2019-03-16T01:15:13.123Z,73.26
2019-03-16T01:17:47.423Z,73.44
2019-03-16T01:20:15.847Z,73.50
2019-03-16T01:22:44.242Z,73.32
2019-03-16T01:25:13.170Z,73.05
2019-03-16T01:27:42.213Z,72.97
2019-03-16T01:30:13.658Z,72.42
2019-03-16T01:32:42.113Z,72.79
2019-03-16T01:35:13.023Z,72.93
2019-03-16T01:37:41.384Z,72.83
2019-03-16T01:40:14.980Z,72.76
2019-03-16T01:42:44.431Z,72.79
2019-03-16T01:45:12.990Z,72.82
2019-03-16T01:47:43.969Z,72.67
2019-03-16T01:50:14.330Z,72.56
2019-03-16T01:52:44.920Z,72.75
2019-03-16T01:55:17.112Z,72.98
2019-03-16T01:57:46.442Z,73.00
2019-03-16T02:00:15.933Z,73.08
2019-03-16T02:02:54.288Z,72.95
2019-03-16T02:05:15.513Z,73.31
2019-03-16T02:07:48.021Z,73.27
2019-03-16T02:10:15.685Z,73.29
2019-03-16T02:12:47.766Z,73.59
2019-03-16T02:15:21.426Z,73.87
2019-03-16T02:17:49.926Z,73.75
2019-03-16T02:20:18.305Z,73.72
2019-03-16T02:22:50.314Z,73.60
2019-03-16T02:25:18.687Z,74.00
2019-03-16T02:27:49.013Z,74.10
2019-03-16T02:30:17.401Z,73.87
2019-03-16T02:32:45.823Z,74.15
2019-03-16T02:35:16.693Z,73.90
2019-03-16T02:37:45.099Z,74.10
2019-03-16T02:40:13.657Z,73.89
2019-03-16T02:42:42.037Z,73.90
2019-03-16T02:45:14.543Z,73.51
2019-03-16T02:47:42.119Z,73.81
2019-03-16T02:50:14.149Z,73.82
2019-03-16T02:52:42.627Z,73.71
2019-03-16T02:55:12.018Z,73.56
2019-03-16T02:57:40.493Z,73.76
2019-03-16T03:00:11.754Z,74.04
2019-03-16T03:02:44.145Z,74.02
2019-03-16T03:05:19.616Z,73.50
2019-03-16T03:07:48.031Z,73.26
2019-03-16T03:10:16.863Z,73.26
2019-03-16T03:12:45.524Z,73.09
2019-03-16T03:15:20.053Z,72.87
2019-03-16T03:17:48.458Z,73.11
2019-03-16T03:20:17.909Z,73.12
2019-03-16T03:22:46.392Z,73.14
2019-03-16T03:25:14.798Z,73.41
2019-03-16T03:27:43.207Z,73.51
2019-03-16T03:30:13.183Z,73.69
2019-03-16T03:32:41.541Z,73.25
2019-03-16T03:35:10.413Z,73.10
2019-03-16T03:37:38.799Z,72.95
2019-03-16T03:40:09.600Z,73.34
2019-03-16T03:42:40.235Z,73.26
2019-03-16T03:45:11.869Z,72.78
2019-03-16T03:47:40.285Z,73.12
2019-03-16T03:50:16.482Z,72.54
2019-03-16T03:52:44.875Z,72.78
2019-03-16T03:55:14.415Z,72.86
2019-03-16T03:57:42.859Z,72.89
2019-03-16T04:00:14.339Z,73.55
2019-03-16T04:02:43.042Z,73.77
2019-03-16T04:05:11.585Z,73.47
2019-03-16T04:07:41.569Z,73.52
2019-03-16T04:10:11.072Z,72.98
2019-03-16T04:12:39.473Z,72.89
2019-03-16T04:15:17.121Z,72.57
2019-03-16T04:17:49.785Z,72.74
2019-03-16T04:20:18.210Z,72.87
2019-03-16T04:22:50.453Z,72.94
2019-03-16T04:25:18.852Z,72.96
2019-03-16T04:27:47.262Z,73.05
2019-03-16T04:30:15.721Z,73.42
2019-03-16T04:32:44.096Z,73.59
2019-03-16T04:35:12.649Z,73.81
2019-03-16T04:37:41.026Z,73.33
2019-03-16T04:40:11.155Z,73.48
2019-03-16T04:42:39.595Z,73.81
2019-03-16T04:45:11.423Z,73.46
2019-03-16T04:47:39.814Z,73.92
2019-03-16T04:50:12.713Z,73.67
2019-03-16T04:52:41.160Z,73.48
2019-03-16T04:55:09.892Z,73.48
2019-03-16T04:57:42.199Z,73.56
2019-03-16T05:00:13.119Z,73.38
2019-03-16T05:02:41.618Z,73.50
2019-03-16T05:05:12.512Z,72.98
2019-03-16T05:07:40.913Z,73.47
2019-03-16T05:10:10.802Z,73.39
2019-03-16T05:12:39.210Z,73.55
2019-03-16T05:15:09.149Z,73.51
2019-03-16T05:17:44.014Z,73.42
2019-03-16T05:20:12.981Z,73.35
2019-03-16T05:22:41.415Z,73.48
2019-03-16T05:25:11.833Z,73.61
2019-03-16T05:27:40.247Z,73.55
2019-03-16T05:30:13.339Z,73.16
2019-03-16T05:32:42.820Z,73.35
2019-03-16T05:35:13.222Z,73.41
2019-03-16T05:37:41.411Z,73.22
2019-03-16T05:40:11.044Z,73.44
2019-03-16T05:42:39.449Z,73.48
2019-03-16T05:45:10.538Z,73.77
2019-03-16T05:47:38.981Z,73.35
2019-03-16T05:50:19.466Z,73.09
2019-03-16T05:52:47.860Z,73.45
2019-03-16T05:55:16.304Z,73.25
2019-03-16T05:57:46.015Z,72.92
2019-03-16T06:00:15.682Z,72.46
2019-03-16T06:02:44.145Z,72.95
2019-03-16T06:05:12.626Z,72.69
2019-03-16T06:07:41.050Z,73.25
2019-03-16T06:10:13.570Z,73.17
2019-03-16T06:12:41.208Z,73.79
2019-03-16T06:15:15.474Z,73.54
2019-03-16T06:17:43.848Z,73.26
2019-03-16T06:20:16.348Z,73.16
2019-03-16T06:22:44.005Z,73.34
2019-03-16T06:25:12.483Z,73.14
2019-03-16T06:27:40.859Z,72.88
2019-03-16T06:30:12.780Z,73.08
2019-03-16T06:32:41.229Z,72.46
2019-03-16T06:35:24.083Z,72.70
2019-03-16T06:37:43.720Z,72.33
2019-03-16T06:40:15.089Z,71.89
2019-03-16T06:42:45.937Z,71.55
2019-03-16T06:45:17.888Z,71.65
2019-03-16T06:47:48.963Z,71.63
2019-03-16T06:50:20.051Z,71.66
2019-03-16T06:52:50.917Z,72.14
2019-03-16T06:55:19.337Z,71.73
2019-03-16T06:57:47.757Z,71.38
2019-03-16T07:00:19.731Z,70.98
2019-03-16T07:02:48.634Z,70.65
2019-03-16T07:05:19.860Z,70.75
2019-03-16T07:07:47.300Z,70.53
2019-03-16T07:10:15.709Z,69.86
2019-03-16T07:12:44.113Z,70.12
2019-03-16T07:15:13.799Z,69.23
2019-03-16T07:17:42.207Z,69.52
2019-03-16T07:20:15.709Z,69.51
2019-03-16T07:22:46.644Z,68.69
2019-03-16T07:25:15.075Z,68.05
2019-03-16T07:27:43.484Z,67.97
2019-03-16T07:30:15.933Z,67.94
2019-03-16T07:32:43.600Z,67.37
2019-03-16T07:35:11.992Z,67.87
2019-03-16T07:37:40.575Z,66.98
2019-03-16T07:40:13.605Z,67.45
2019-03-16T07:42:42.713Z,67.35
2019-03-16T07:45:12.243Z,67.36
2019-03-16T07:47:51.859Z,67.13
2019-03-16T07:50:20.252Z,66.67
2019-03-16T07:52:50.995Z,66.14
2019-03-16T07:55:19.391Z,66.31
2019-03-16T07:57:47.809Z,66.75
2019-03-16T08:00:20.462Z,66.11
2019-03-16T08:02:48.847Z,66.31
2019-03-16T08:05:19.216Z,66.40
2019-03-16T08:07:47.394Z,65.68
2019-03-16T08:10:15.773Z,65.22
2019-03-16T08:12:45.283Z,64.93
2019-03-16T08:15:14.673Z,65.19
2019-03-16T08:17:44.121Z,64.66
2019-03-16T08:20:14.171Z,64.12
2019-03-16T08:22:42.607Z,64.42
2019-03-16T08:25:11.097Z,63.42
2019-03-16T08:27:53.689Z,63.88
2019-03-16T08:30:15.791Z,62.49
2019-03-16T08:32:44.202Z,62.31
2019-03-16T08:35:12.630Z,62.16
2019-03-16T08:37:41.043Z,61.87
2019-03-16T08:40:11.231Z,61.90
2019-03-16T08:42:39.624Z,61.60
2019-03-16T08:45:10.272Z,61.30
2019-03-16T08:47:41.158Z,62.17
2019-03-16T08:50:11.903Z,62.19
2019-03-16T08:52:42.376Z,61.74
2019-03-16T08:55:12.075Z,62.77
2019-03-16T08:57:40.799Z,61.68
2019-03-16T09:00:12.422Z,62.23
2019-03-16T09:02:40.835Z,61.89
2019-03-16T09:05:09.559Z,60.29
2019-03-16T09:07:39.592Z,61.32
2019-03-16T09:10:09.604Z,60.64
2019-03-16T09:12:39.115Z,60.64
2019-03-16T09:15:13.579Z,59.96
2019-03-16T09:17:41.947Z,60.09
2019-03-16T09:20:10.431Z,60.89
2019-03-16T09:22:38.839Z,58.96
2019-03-16T09:25:10.929Z,59.80
2019-03-16T09:27:39.360Z,59.03
2019-03-16T09:30:14.625Z,59.42
2019-03-16T09:32:48.628Z,59.81
2019-03-16T09:35:17.055Z,59.09
2019-03-16T09:37:46.555Z,59.56
2019-03-16T09:40:14.958Z,60.39
2019-03-16T09:42:44.458Z,61.58
2019-03-16T09:45:13.682Z,61.55
2019-03-16T09:47:42.083Z,61.90
2019-03-16T09:50:11.309Z,61.80
2019-03-16T09:52:40.061Z,59.55
2019-03-16T09:55:12.544Z,59.70
2019-03-16T09:57:40.211Z,59.87
2019-03-16T10:00:14.052Z,60.59
2019-03-16T10:02:42.446Z,61.44
2019-03-16T10:05:11.768Z,61.47
2019-03-16T10:07:43.672Z,62.43
2019-03-16T10:10:18.768Z,62.62
2019-03-16T10:12:50.885Z,62.09
2019-03-16T10:15:20.385Z,62.58
2019-03-16T10:17:48.780Z,62.92
2019-03-16T10:20:17.249Z,63.19
2019-03-16T10:22:45.624Z,62.78
2019-03-16T10:25:14.016Z,62.46
2019-03-16T10:27:42.465Z,62.39
2019-03-16T10:30:17.113Z,62.57
2019-03-16T10:32:45.535Z,62.57
2019-03-16T10:35:14.887Z,62.46
2019-03-16T10:37:43.285Z,62.60
2019-03-16T10:40:14.867Z,60.90
2019-03-16T10:42:43.274Z,60.09
2019-03-16T10:45:15.623Z,61.77
2019-03-16T10:47:44.020Z,61.21
2019-03-16T10:50:13.551Z,61.79
2019-03-16T10:52:42.008Z,61.96
2019-03-16T10:55:16.504Z,62.71
2019-03-16T10:57:44.917Z,62.88
2019-03-16T11:00:19.537Z,63.27
2019-03-16T11:02:48.112Z,62.24
2019-03-16T11:05:16.569Z,63.73
2019-03-16T11:07:45.975Z,63.58
2019-03-16T11:10:18.843Z,61.90
2019-03-16T11:12:48.275Z,63.28
2019-03-16T11:15:20.177Z,63.92
2019-03-16T11:17:48.551Z,62.64
2019-03-16T11:20:18.578Z,61.94
2019-03-16T11:22:46.974Z,63.46
2019-03-16T11:25:15.375Z,64.37
2019-03-16T11:27:43.798Z,65.40
2019-03-16T11:30:15.238Z,65.23
2019-03-16T11:32:44.578Z,65.05
2019-03-16T11:35:13.213Z,65.60
2019-03-16T11:37:42.529Z,65.43
2019-03-16T11:40:20.108Z,65.36
2019-03-16T11:42:48.551Z,65.69
2019-03-16T11:45:17.644Z,64.60
2019-03-16T11:47:46.272Z,65.38
2019-03-16T11:50:14.695Z,65.28
2019-03-16T11:52:43.141Z,64.19
2019-03-16T11:55:11.656Z,66.82
2019-03-16T11:57:41.207Z,67.97
2019-03-16T12:00:14.718Z,69.60
2019-03-16T12:02:44.192Z,71.38
2019-03-16T12:05:16.412Z,70.23
2019-03-16T12:07:44.851Z,70.18
2019-03-16T12:10:16.533Z,71.20
2019-03-16T12:12:44.928Z,70.75
2019-03-16T12:15:14.486Z,71.35
2019-03-16T12:17:42.880Z,72.62
2019-03-16T12:20:19.056Z,72.21
2019-03-16T12:22:47.484Z,72.30
2019-03-16T12:25:15.856Z,73.10
2019-03-16T12:27:48.188Z,73.02
2019-03-16T12:30:18.449Z,71.59
2019-03-16T12:32:46.866Z,72.95
2019-03-16T12:35:15.245Z,72.88
2019-03-16T12:37:47.574Z,72.27
2019-03-16T12:40:16.347Z,71.93
2019-03-16T12:42:44.772Z,71.14
2019-03-16T12:45:20.794Z,72.20
2019-03-16T12:47:49.461Z,73.97
2019-03-16T12:50:19.018Z,73.43
2019-03-16T12:52:47.425Z,73.25
2019-03-16T12:55:15.795Z,73.34
2019-03-16T12:57:44.209Z,73.71
2019-03-16T13:00:19.512Z,74.41
2019-03-16T13:02:53.272Z,74.07
2019-03-16T13:05:21.643Z,75.23
2019-03-16T13:07:50.029Z,75.46
2019-03-16T13:10:21.343Z,75.33
2019-03-16T13:12:53.487Z,75.04
2019-03-16T13:15:21.865Z,75.23
2019-03-16T13:17:50.287Z,74.82
2019-03-16T13:20:19.759Z,74.88
2019-03-16T13:22:48.173Z,74.47
2019-03-16T13:25:16.538Z,75.03
2019-03-16T13:27:48.631Z,75.49
2019-03-16T13:30:19.180Z,76.22
2019-03-16T13:32:48.846Z,76.22
2019-03-16T13:35:17.219Z,76.39
2019-03-16T13:37:45.833Z,76.29
2019-03-16T13:40:17.396Z,76.62
2019-03-16T13:42:47.020Z,77.13
2019-03-16T13:45:15.552Z,77.25
2019-03-16T13:47:44.725Z,77.79
2019-03-16T13:50:20.824Z,78.47
2019-03-16T13:52:49.545Z,78.65
2019-03-16T13:55:17.947Z,78.32
2019-03-16T13:57:46.323Z,78.97
2019-03-16T14:00:19.495Z,78.88
2019-03-16T14:02:47.930Z,79.08
2019-03-16T14:05:16.397Z,78.75
2019-03-16T14:07:45.167Z,78.50
2019-03-16T14:10:31.336Z,79.20
2019-03-16T14:12:59.692Z,79.17
2019-03-16T14:15:28.142Z,79.21
2019-03-16T14:17:59.020Z,78.96
2019-03-16T14:20:27.402Z,78.54
2019-03-16T14:22:59.783Z,79.13
2019-03-16T14:25:27.098Z,79.79
2019-03-16T14:27:59.440Z,80.36
2019-03-16T14:30:41.042Z,80.20
2019-03-16T14:33:06.634Z,80.01
2019-03-16T14:35:35.016Z,80.08
2019-03-16T14:38:03.471Z,80.43
2019-03-16T14:40:31.896Z,79.78
2019-03-16T14:43:00.227Z,80.38
2019-03-16T14:45:30.074Z,80.53
2019-03-16T14:47:58.458Z,80.52
2019-03-16T14:50:27.789Z,80.74
2019-03-16T14:52:56.239Z,80.24
2019-03-16T14:55:24.629Z,80.90
2019-03-16T14:57:53.206Z,81.17
2019-03-16T15:00:37.799Z,81.53
2019-03-16T15:02:56.510Z,81.27
2019-03-16T15:05:24.939Z,81.73
2019-03-16T15:07:53.604Z,82.29
2019-03-16T15:10:22.012Z,81.79
2019-03-16T15:12:50.381Z,81.96
2019-03-16T15:15:20.521Z,81.67
2019-03-16T15:17:52.859Z,81.98
2019-03-16T15:20:21.515Z,81.87
2019-03-16T15:22:49.881Z,81.83
2019-03-16T15:25:21.127Z,82.09
2019-03-16T15:27:49.510Z,82.28
2019-03-16T15:30:21.932Z,82.42
2019-03-16T15:32:49.595Z,82.80
2019-03-16T15:35:19.478Z,83.11
2019-03-16T15:37:47.868Z,83.25
2019-03-16T15:40:16.656Z,82.85
2019-03-16T15:42:45.071Z,83.12
2019-03-16T15:45:17.273Z,83.02
2019-03-16T15:47:46.729Z,83.97
2019-03-16T15:50:17.779Z,83.60
2019-03-16T15:52:46.163Z,83.61
2019-03-16T15:55:14.615Z,83.61
2019-03-16T15:57:43.177Z,83.80
2019-03-16T16:00:20.705Z,83.63
2019-03-16T16:02:49.357Z,84.07
2019-03-16T16:05:17.751Z,83.93
2019-03-16T16:07:47.124Z,83.81
2019-03-16T16:10:20.238Z,83.58
2019-03-16T16:12:51.190Z,83.63
2019-03-16T16:15:19.583Z,83.54
2019-03-16T16:17:50.017Z,83.97
2019-03-16T16:20:21.457Z,84.03
2019-03-16T16:22:50.308Z,83.59
2019-03-16T16:25:19.801Z,83.94
2019-03-16T16:27:48.707Z,83.97
2019-03-16T16:30:23.426Z,84.03
2019-03-16T16:32:52.366Z,84.17
2019-03-16T16:35:21.913Z,84.27
2019-03-16T16:37:50.287Z,84.41
2019-03-16T16:40:19.684Z,84.40
2019-03-16T16:42:48.296Z,84.35
2019-03-16T16:45:17.704Z,84.00
2019-03-16T16:47:46.113Z,85.03
2019-03-16T16:50:21.681Z,84.84
2019-03-16T16:52:51.305Z,85.17
2019-03-16T16:55:19.776Z,85.14
2019-03-16T16:57:48.182Z,84.94
2019-03-16T17:00:25.756Z,84.96
2019-03-16T17:02:56.711Z,85.14
2019-03-16T17:05:27.869Z,84.99
2019-03-16T17:08:00.447Z,84.64
2019-03-16T17:10:28.826Z,84.64
2019-03-16T17:12:57.246Z,85.16
2019-03-16T17:15:33.328Z,85.27
2019-03-16T17:18:05.515Z,84.95
2019-03-16T17:20:35.428Z,84.95
2019-03-16T17:23:03.881Z,85.32
2019-03-16T17:25:32.385Z,85.42
2019-03-16T17:28:00.789Z,85.42
2019-03-16T17:30:30.454Z,85.17
2019-03-16T17:33:32.992Z,84.93
2019-03-16T17:36:01.415Z,84.93
2019-03-16T17:38:29.823Z,84.39
2019-03-16T17:41:00.342Z,84.89
2019-03-16T17:43:28.741Z,85.06
2019-03-16T17:45:59.724Z,84.85
2019-03-16T17:48:29.769Z,84.97
2019-03-16T17:51:01.867Z,84.85
2019-03-16T17:53:30.244Z,84.63
2019-03-16T17:56:02.326Z,84.65
2019-03-16T17:58:30.688Z,84.55
2019-03-16T18:01:00.154Z,84.52
2019-03-16T18:03:28.552Z,84.14
2019-03-16T18:05:56.952Z,83.95
2019-03-16T18:08:25.424Z,84.17
2019-03-16T18:10:53.846Z,83.75
2019-03-16T18:13:25.964Z,83.88
2019-03-16T18:15:54.381Z,83.88
2019-03-16T18:18:22.783Z,83.59
2019-03-16T18:20:51.225Z,83.69
2019-03-16T18:23:19.616Z,83.34
2019-03-16T18:25:48.140Z,83.51
2019-03-16T18:28:18.618Z,83.36
2019-03-16T18:30:47.832Z,82.91
2019-03-16T18:33:16.237Z,83.19
2019-03-16T18:35:44.634Z,83.07
2019-03-16T18:38:14.089Z,83.00
2019-03-16T18:40:42.485Z,83.00
2019-03-16T18:43:10.907Z,83.34
2019-03-16T18:45:40.363Z,82.81
2019-03-16T18:48:09.142Z,83.32
2019-03-16T18:50:37.595Z,82.93
2019-03-16T18:53:06.028Z,82.83
2019-03-16T18:55:34.425Z,82.83
2019-03-16T18:58:02.804Z,82.60
2019-03-16T19:00:31.386Z,100.00
2019-03-16T19:02:59.816Z,82.67
2019-03-16T19:05:30.616Z,82.75
2019-03-16T19:07:59.056Z,82.46
2019-03-16T19:10:29.310Z,82.04
2019-03-16T19:12:57.695Z,82.18
2019-03-16T19:15:26.324Z,82.02
2019-03-16T19:17:58.929Z,82.20
2019-03-16T19:20:30.090Z,81.96
2019-03-16T19:23:01.373Z,81.79
2019-03-16T19:25:29.946Z,81.66
2019-03-16T19:28:01.020Z,81.21
2019-03-16T19:30:30.395Z,81.32
2019-03-16T19:32:58.844Z,81.05
2019-03-16T19:35:27.241Z,80.41
2019-03-16T19:37:55.627Z,80.55
2019-03-16T19:40:26.527Z,80.27
2019-03-16T19:42:54.907Z,80.54
2019-03-16T19:45:23.313Z,80.17
2019-03-16T19:47:51.702Z,79.96
2019-03-16T19:50:21.388Z,79.65
2019-03-16T19:52:50.843Z,79.59
